createdAt,value
2018-09-14T00:00:17.673Z,16.07
2018-09-14T00:01:21.073Z,16.42
2018-09-14T00:02:24.506Z,16.73
2018-09-14T00:03:27.933Z,16.35
2018-09-14T00:04:31.320Z,16.70
2018-09-14T00:05:34.806Z,15.45
2018-09-14T00:06:38.276Z,16.30
2018-09-14T00:07:41.693Z,16.48
2018-09-14T00:08:45.173Z,15.53
2018-09-14T00:09:48.749Z,15.58
2018-09-14T00:10:52.216Z,16.90
2018-09-14T00:11:55.632Z,18.92
2018-09-14T00:12:59.027Z,17.05
2018-09-14T00:14:02.424Z,17.17
2018-09-14T00:15:05.889Z,17.07
2018-09-14T00:16:09.299Z,16.90
2018-09-14T00:17:12.819Z,18.40
2018-09-14T00:18:16.259Z,15.53
2018-09-14T00:19:19.677Z,17.27
2018-09-14T00:20:23.304Z,16.95
2018-09-14T00:21:26.696Z,16.35
2018-09-14T00:22:30.109Z,18.55
2018-09-14T00:23:33.512Z,16.95
2018-09-14T00:24:36.925Z,16.40
2018-09-14T00:25:40.332Z,16.82
2018-09-14T00:26:43.733Z,18.45
2018-09-14T00:27:47.173Z,16.45
2018-09-14T00:28:50.563Z,16.62
2018-09-14T00:29:53.980Z,16.50
2018-09-14T00:30:57.404Z,16.77
2018-09-14T00:32:00.829Z,17.90
2018-09-14T00:33:04.257Z,18.15
2018-09-14T00:34:08.013Z,18.12
2018-09-14T00:35:11.448Z,19.75
2018-09-14T00:36:14.839Z,17.73
2018-09-14T00:37:18.267Z,16.82
2018-09-14T00:38:21.667Z,17.25
2018-09-14T00:39:25.169Z,19.20
2018-09-14T00:40:28.608Z,18.30
2018-09-14T00:41:32.032Z,17.98
2018-09-14T00:42:35.618Z,17.87
2018-09-14T00:43:39.085Z,17.32
2018-09-14T00:44:42.503Z,16.12
2018-09-14T00:45:45.924Z,18.30
2018-09-14T00:46:49.353Z,18.02
2018-09-14T00:47:52.750Z,17.12
2018-09-14T00:48:56.148Z,21.00
2018-09-14T00:49:59.548Z,17.95
2018-09-14T00:51:02.995Z,16.85
2018-09-14T00:52:06.419Z,16.97
2018-09-14T00:53:09.844Z,17.62
2018-09-14T00:54:13.286Z,17.98
2018-09-14T00:55:16.777Z,16.82
2018-09-14T00:56:20.184Z,18.92
2018-09-14T00:57:23.721Z,18.30
2018-09-14T00:58:27.133Z,15.75
2018-09-14T00:59:30.645Z,17.45
2018-09-14T01:00:34.124Z,16.40
2018-09-14T01:01:37.589Z,17.17
2018-09-14T01:02:41.001Z,18.20
2018-09-14T01:03:44.480Z,17.15
2018-09-14T01:04:47.940Z,15.78
2018-09-14T01:05:51.495Z,16.90
2018-09-14T01:06:54.982Z,19.05
2018-09-14T01:07:58.367Z,19.62
2018-09-14T01:09:01.799Z,17.32
2018-09-14T01:10:06.333Z,21.07
2018-09-14T01:11:09.731Z,17.80
2018-09-14T01:12:13.166Z,17.05
2018-09-14T01:13:16.628Z,18.15
2018-09-14T01:14:20.042Z,17.35
2018-09-14T01:15:23.452Z,16.27
2018-09-14T01:16:26.885Z,17.40
2018-09-14T01:17:30.297Z,18.05
2018-09-14T01:18:33.687Z,17.32
2018-09-14T01:19:37.274Z,16.87
2018-09-14T01:20:40.691Z,18.50
2018-09-14T01:21:44.131Z,16.17
2018-09-14T01:22:47.679Z,18.02
2018-09-14T01:23:51.140Z,18.15
2018-09-14T01:24:54.711Z,17.07
2018-09-14T01:25:58.112Z,17.48
2018-09-14T01:27:01.594Z,15.70
2018-09-14T01:28:04.982Z,17.77
2018-09-14T01:29:08.433Z,17.87
2018-09-14T01:30:11.865Z,16.95
2018-09-14T01:31:15.316Z,18.50
2018-09-14T01:32:18.805Z,15.35
2018-09-14T01:33:22.209Z,17.77
2018-09-14T01:34:25.624Z,17.48
2018-09-14T01:35:34.505Z,17.50
2018-09-14T01:36:37.915Z,19.77
2018-09-14T01:37:41.400Z,18.07
2018-09-14T01:38:44.799Z,19.80
2018-09-14T01:39:48.187Z,19.05
2018-09-14T01:40:51.621Z,17.27
2018-09-14T01:41:55.147Z,16.23
2018-09-14T01:42:58.703Z,17.37
2018-09-14T01:44:02.114Z,17.15
2018-09-14T01:45:05.636Z,15.32
2018-09-14T01:46:09.031Z,16.50
2018-09-14T01:47:12.520Z,15.20
2018-09-14T01:48:16.009Z,17.32
2018-09-14T01:49:19.479Z,17.65
2018-09-14T01:50:22.869Z,17.05
2018-09-14T01:51:26.365Z,16.05
2018-09-14T01:52:29.760Z,16.87
2018-09-14T01:53:33.208Z,14.63
2018-09-14T01:54:36.617Z,19.17
2018-09-14T01:55:40.077Z,15.23
2018-09-14T01:56:43.492Z,14.55
2018-09-14T01:57:46.919Z,14.78
2018-09-14T01:58:50.353Z,17.42
2018-09-14T01:59:53.796Z,16.20
2018-09-14T02:00:57.210Z,16.25
2018-09-14T02:02:00.664Z,16.15
2018-09-14T02:03:04.101Z,15.72
2018-09-14T02:04:07.581Z,14.85
2018-09-14T02:05:10.976Z,16.40
2018-09-14T02:06:14.688Z,16.27
2018-09-14T02:07:18.079Z,14.70
2018-09-14T02:08:21.504Z,13.85
2018-09-14T02:09:24.984Z,14.83
2018-09-14T02:10:28.432Z,14.98
2018-09-14T02:11:31.830Z,15.80
2018-09-14T02:12:35.299Z,16.52
2018-09-14T02:13:38.800Z,16.57
2018-09-14T02:14:42.260Z,16.48
2018-09-14T02:15:45.660Z,17.60
2018-09-14T02:16:49.138Z,15.63
2018-09-14T02:17:52.615Z,16.85
2018-09-14T02:18:56.023Z,15.13
2018-09-14T02:19:59.452Z,16.20
2018-09-14T02:21:02.858Z,16.42
2018-09-14T02:22:06.525Z,16.20
2018-09-14T02:23:09.992Z,16.02
2018-09-14T02:24:13.397Z,15.00
2018-09-14T02:25:16.924Z,14.25
2018-09-14T02:26:20.398Z,15.23
2018-09-14T02:27:24.003Z,16.10
2018-09-14T02:28:27.407Z,16.00
2018-09-14T02:29:30.844Z,15.75
2018-09-14T02:30:34.305Z,16.27
2018-09-14T02:31:37.720Z,15.08
2018-09-14T02:32:41.121Z,18.30
2018-09-14T02:33:44.522Z,21.73
2018-09-14T02:34:47.928Z,14.93
2018-09-14T02:35:51.407Z,15.72
2018-09-14T02:36:54.803Z,15.15
2018-09-14T02:37:58.207Z,15.48
2018-09-14T02:39:01.673Z,19.57
2018-09-14T02:40:05.112Z,17.90
2018-09-14T02:41:08.552Z,15.43
2018-09-14T02:42:12.019Z,16.70
2018-09-14T02:43:15.420Z,14.73
2018-09-14T02:44:18.809Z,18.40
2018-09-14T02:45:22.224Z,15.53
2018-09-14T02:46:25.655Z,14.33
2018-09-14T02:47:29.163Z,15.50
2018-09-14T02:48:32.643Z,20.35
2018-09-14T02:49:36.037Z,15.60
2018-09-14T02:50:39.476Z,15.53
2018-09-14T02:51:42.932Z,15.18
2018-09-14T02:52:46.335Z,15.78
2018-09-14T02:53:49.784Z,15.43
2018-09-14T02:54:53.312Z,16.80
2018-09-14T02:55:56.741Z,15.30
2018-09-14T02:57:00.196Z,16.27
2018-09-14T02:58:03.617Z,18.48
2018-09-14T02:59:07.004Z,15.38
2018-09-14T03:00:10.607Z,16.55
2018-09-14T03:01:14.008Z,13.72
2018-09-14T03:02:17.459Z,16.35
2018-09-14T03:03:20.926Z,14.38
2018-09-14T03:04:24.332Z,15.38
2018-09-14T03:05:27.728Z,17.45
2018-09-14T03:06:31.139Z,15.55
2018-09-14T03:07:34.625Z,14.98
2018-09-14T03:08:38.094Z,15.18
2018-09-14T03:09:41.448Z,17.40
2018-09-14T03:10:44.893Z,16.17
2018-09-14T03:11:48.285Z,14.47
2018-09-14T03:12:51.872Z,15.93
2018-09-14T03:13:55.296Z,14.18
2018-09-14T03:14:58.733Z,14.03
2018-09-14T03:16:02.173Z,15.23
2018-09-14T03:17:05.852Z,18.15
2018-09-14T03:18:09.289Z,18.82
2018-09-14T03:19:12.709Z,17.55
2018-09-14T03:20:16.156Z,14.73
2018-09-14T03:21:19.581Z,18.52
2018-09-14T03:22:22.980Z,14.68
2018-09-14T03:23:26.481Z,13.43
2018-09-14T03:24:29.915Z,13.45
2018-09-14T03:25:33.347Z,15.83
2018-09-14T03:26:36.741Z,15.38
2018-09-14T03:27:40.148Z,15.72
2018-09-14T03:28:43.564Z,13.38
2018-09-14T03:29:47.008Z,13.70
2018-09-14T03:30:50.453Z,14.70
2018-09-14T03:31:53.854Z,16.32
2018-09-14T03:32:57.340Z,18.37
2018-09-14T03:34:00.879Z,16.07
2018-09-14T03:35:04.280Z,15.43
2018-09-14T03:36:08.032Z,14.45
2018-09-14T03:37:11.699Z,14.80
2018-09-14T03:38:15.133Z,16.42
2018-09-14T03:39:18.627Z,13.95
2018-09-14T03:40:21.972Z,14.40
2018-09-14T03:41:25.431Z,15.32
2018-09-14T03:42:28.899Z,13.55
2018-09-14T03:43:32.408Z,17.55
2018-09-14T03:44:36.085Z,16.55
2018-09-14T03:45:39.500Z,15.43
2018-09-14T03:46:42.917Z,15.98
2018-09-14T03:47:46.326Z,15.83
2018-09-14T03:48:49.725Z,18.25
2018-09-14T03:49:53.176Z,18.62
2018-09-14T03:50:56.589Z,15.78
2018-09-14T03:52:00.009Z,19.23
2018-09-14T03:53:03.432Z,16.70
2018-09-14T03:54:07.068Z,19.87
2018-09-14T03:55:10.505Z,16.23
2018-09-14T03:56:13.915Z,20.00
2018-09-14T03:57:17.331Z,16.15
2018-09-14T03:58:20.720Z,19.05
2018-09-14T03:59:24.134Z,20.17
2018-09-14T04:00:27.547Z,19.25
2018-09-14T04:01:30.971Z,16.25
2018-09-14T04:02:34.384Z,16.32
2018-09-14T04:03:37.829Z,16.32
2018-09-14T04:04:41.229Z,18.37
2018-09-14T04:05:44.721Z,16.52
2018-09-14T04:06:48.115Z,18.85
2018-09-14T04:07:51.550Z,22.45
2018-09-14T04:08:54.987Z,18.25
2018-09-14T04:09:58.456Z,17.23
2018-09-14T04:11:01.897Z,17.82
2018-09-14T04:12:05.384Z,19.82
2018-09-14T04:13:08.843Z,20.00
2018-09-14T04:14:12.248Z,23.18
2018-09-14T04:15:15.649Z,18.98
2018-09-14T04:16:19.200Z,16.80
2018-09-14T04:17:22.612Z,16.57
2018-09-14T04:18:26.048Z,16.42
2018-09-14T04:19:29.456Z,16.12
2018-09-14T04:20:32.929Z,18.48
2018-09-14T04:21:36.918Z,16.32
2018-09-14T04:22:40.341Z,15.45
2018-09-14T04:23:43.795Z,15.85
2018-09-14T04:24:47.229Z,16.50
2018-09-14T04:25:50.663Z,16.32
2018-09-14T04:26:54.072Z,22.17
2018-09-14T04:27:57.608Z,15.15
2018-09-14T04:29:01.361Z,15.18
2018-09-14T04:30:04.820Z,16.57
2018-09-14T04:31:08.280Z,18.27
2018-09-14T04:32:11.718Z,17.02
2018-09-14T04:33:15.241Z,18.20
2018-09-14T04:34:18.698Z,17.02
2018-09-14T04:35:22.092Z,15.43
2018-09-14T04:36:25.496Z,16.87
2018-09-14T04:37:28.932Z,14.25
2018-09-14T04:38:32.569Z,14.87
2018-09-14T04:39:35.863Z,14.60
2018-09-14T04:40:39.529Z,16.12
2018-09-14T04:41:42.944Z,16.87
2018-09-14T04:42:46.420Z,15.68
2018-09-14T04:43:49.832Z,17.70
2018-09-14T04:44:53.238Z,18.17
2018-09-14T04:45:56.658Z,17.52
2018-09-14T04:47:00.104Z,14.83
2018-09-14T04:48:03.697Z,16.77
2018-09-14T04:49:07.115Z,21.30
2018-09-14T04:50:10.578Z,16.50
2018-09-14T04:51:13.998Z,18.52
2018-09-14T04:52:17.406Z,17.30
2018-09-14T04:53:20.835Z,13.95
2018-09-14T04:54:24.365Z,16.02
2018-09-14T04:55:27.704Z,17.23
2018-09-14T04:56:31.200Z,15.98
2018-09-14T04:57:34.622Z,14.20
2018-09-14T04:58:38.092Z,16.37
2018-09-14T04:59:41.555Z,16.50
2018-09-14T05:00:44.983Z,18.75
2018-09-14T05:01:48.383Z,15.45
2018-09-14T05:02:51.988Z,16.87
2018-09-14T05:03:55.446Z,16.10
2018-09-14T05:04:58.849Z,15.58
2018-09-14T05:06:02.313Z,17.75
2018-09-14T05:07:05.713Z,14.50
2018-09-14T05:08:09.212Z,14.30
2018-09-14T05:09:12.690Z,17.57
2018-09-14T05:10:16.111Z,17.77
2018-09-14T05:11:19.628Z,16.15
2018-09-14T05:12:23.125Z,17.12
2018-09-14T05:13:26.959Z,16.67
2018-09-14T05:14:30.558Z,14.18
2018-09-14T05:15:33.957Z,17.10
2018-09-14T05:16:37.384Z,18.65
2018-09-14T05:17:40.771Z,14.83
2018-09-14T05:18:44.263Z,16.12
2018-09-14T05:19:47.680Z,18.90
2018-09-14T05:20:51.151Z,13.80
2018-09-14T05:21:54.560Z,19.48
2018-09-14T05:22:57.972Z,16.82
2018-09-14T05:24:01.441Z,18.20
2018-09-14T05:25:04.906Z,15.35
2018-09-14T05:26:08.490Z,17.02
2018-09-14T05:27:11.909Z,15.68
2018-09-14T05:28:15.432Z,15.93
2018-09-14T05:29:18.873Z,18.37
2018-09-14T05:30:22.289Z,16.02
2018-09-14T05:31:25.720Z,15.05
2018-09-14T05:32:29.192Z,16.32
2018-09-14T05:33:32.635Z,16.97
2018-09-14T05:34:36.084Z,17.20
2018-09-14T05:35:39.525Z,15.23
2018-09-14T05:36:43.013Z,16.97
2018-09-14T05:37:46.463Z,16.02
2018-09-14T05:38:49.953Z,17.20
2018-09-14T05:39:53.444Z,14.90
2018-09-14T05:40:56.872Z,15.68
2018-09-14T05:42:00.301Z,16.10
2018-09-14T05:43:03.700Z,18.75
2018-09-14T05:44:07.152Z,16.37
2018-09-14T05:45:10.565Z,17.80
2018-09-14T05:46:14.038Z,21.33
2018-09-14T05:47:17.452Z,20.60
2018-09-14T05:48:20.952Z,15.58
2018-09-14T05:49:24.363Z,18.75
2018-09-14T05:50:27.816Z,21.50
2018-09-14T05:51:31.684Z,19.40
2018-09-14T05:52:35.108Z,19.90
2018-09-14T05:53:38.565Z,18.65
2018-09-14T05:54:42.213Z,16.90
2018-09-14T05:55:45.642Z,19.32
2018-09-14T05:56:49.256Z,20.23
2018-09-14T05:57:52.698Z,18.15
2018-09-14T05:58:56.152Z,17.37
2018-09-14T05:59:59.612Z,27.02
2018-09-14T06:01:03.019Z,19.92
2018-09-14T06:02:06.564Z,19.92
2018-09-14T06:03:09.976Z,19.35
2018-09-14T06:04:13.445Z,16.23
2018-09-14T06:05:16.861Z,20.20
2018-09-14T06:06:20.296Z,23.50
2018-09-14T06:07:23.907Z,19.70
2018-09-14T06:08:27.315Z,19.20
2018-09-14T06:09:30.727Z,21.33
2018-09-14T06:10:34.207Z,19.60
2018-09-14T06:11:37.717Z,19.95
2018-09-14T06:12:41.180Z,17.57
2018-09-14T06:13:44.613Z,19.75
2018-09-14T06:14:48.082Z,19.02
2018-09-14T06:15:51.493Z,21.12
2018-09-14T06:16:54.942Z,19.25
2018-09-14T06:17:58.363Z,20.88
2018-09-14T06:19:01.871Z,21.85
2018-09-14T06:20:05.492Z,20.65
2018-09-14T06:21:08.940Z,18.25
2018-09-14T06:22:12.371Z,21.55
2018-09-14T06:23:15.868Z,21.27
2018-09-14T06:24:20.776Z,22.65
2018-09-14T06:25:24.212Z,21.05
2018-09-14T06:26:27.651Z,21.68
2018-09-14T06:27:31.119Z,20.48
2018-09-14T06:28:34.575Z,19.25
2018-09-14T06:29:37.995Z,21.07
2018-09-14T06:30:41.495Z,24.40
2018-09-14T06:31:44.932Z,20.32
2018-09-14T06:32:48.348Z,21.30
2018-09-14T06:33:51.804Z,17.65
2018-09-14T06:34:55.426Z,27.20
2018-09-14T06:35:58.844Z,21.07
2018-09-14T06:37:02.287Z,18.52
2018-09-14T06:38:05.805Z,19.25
2018-09-14T06:39:10.853Z,20.70
2018-09-14T06:40:14.296Z,20.50
2018-09-14T06:41:17.842Z,17.92
2018-09-14T06:42:21.365Z,23.50
2018-09-14T06:43:24.811Z,18.55
2018-09-14T06:44:28.271Z,19.35
2018-09-14T06:45:31.782Z,26.57
2018-09-14T06:46:35.282Z,18.48
2018-09-14T06:47:38.914Z,22.42
2018-09-14T06:48:42.316Z,20.70
2018-09-14T06:49:45.840Z,21.85
2018-09-14T06:50:49.251Z,20.25
2018-09-14T06:51:52.654Z,20.50
2018-09-14T06:52:56.063Z,22.02
2018-09-14T06:53:59.526Z,22.60
2018-09-14T06:55:02.965Z,20.70
2018-09-14T06:56:06.392Z,20.88
2018-09-14T06:57:09.813Z,19.55
2018-09-14T06:58:13.346Z,20.27
2018-09-14T06:59:16.796Z,20.32
2018-09-14T07:00:20.405Z,20.85
2018-09-14T07:01:23.745Z,20.72
2018-09-14T07:02:27.994Z,27.75
2018-09-14T07:03:31.396Z,22.85
2018-09-14T07:04:34.936Z,24.05
2018-09-14T07:05:38.347Z,19.57
2018-09-14T07:06:41.944Z,20.60
2018-09-14T07:07:46.089Z,18.92
2018-09-14T07:08:49.480Z,22.30
2018-09-14T07:09:52.876Z,20.57
2018-09-14T07:10:56.284Z,25.02
2018-09-14T07:11:59.693Z,22.00
2018-09-14T07:13:03.305Z,19.35
2018-09-14T07:14:06.809Z,20.60
2018-09-14T07:15:10.244Z,24.02
2018-09-14T07:16:13.636Z,22.65
2018-09-14T07:17:17.162Z,23.70
2018-09-14T07:18:20.559Z,21.17
2018-09-14T07:19:24.086Z,24.43
2018-09-14T07:20:27.494Z,24.23
2018-09-14T07:21:30.882Z,19.57
2018-09-14T07:22:34.273Z,26.20
2018-09-14T07:23:37.807Z,23.57
2018-09-14T07:24:41.328Z,19.60
2018-09-14T07:25:44.690Z,19.48
2018-09-14T07:26:48.152Z,21.60
2018-09-14T07:27:51.565Z,22.42
2018-09-14T07:28:55.074Z,22.17
2018-09-14T07:29:58.385Z,17.10
2018-09-14T07:31:01.982Z,20.20
2018-09-14T07:32:05.407Z,19.40
2018-09-14T07:33:08.833Z,18.85
2018-09-14T07:34:12.305Z,19.73
2018-09-14T07:35:15.983Z,18.57
2018-09-14T07:36:19.438Z,21.73
2018-09-14T07:37:22.860Z,18.80
2018-09-14T07:38:26.515Z,18.12
2018-09-14T07:39:30.006Z,17.67
2018-09-14T07:40:33.403Z,15.85
2018-09-14T07:41:36.949Z,20.23
2018-09-14T07:42:40.348Z,18.05
2018-09-14T07:43:43.869Z,17.98
2018-09-14T07:44:47.463Z,20.88
2018-09-14T07:45:51.015Z,18.90
2018-09-14T07:46:54.469Z,18.57
2018-09-14T07:47:57.896Z,16.00
2018-09-14T07:49:01.380Z,19.50
2018-09-14T07:50:05.116Z,17.12
2018-09-14T07:51:08.527Z,18.87
2018-09-14T07:52:11.941Z,16.35
2018-09-14T07:53:15.340Z,19.92
2018-09-14T07:54:18.825Z,19.60
2018-09-14T07:55:22.276Z,18.42
2018-09-14T07:56:25.918Z,19.15
2018-09-14T07:57:29.458Z,18.32
2018-09-14T07:58:32.885Z,17.52
2018-09-14T07:59:36.304Z,19.55
2018-09-14T08:00:39.754Z,18.17
2018-09-14T08:01:43.164Z,19.00
2018-09-14T08:02:46.704Z,21.40
2018-09-14T08:03:50.209Z,18.70
2018-09-14T08:04:53.637Z,19.90
2018-09-14T08:05:57.095Z,19.77
2018-09-14T08:07:00.520Z,24.43
2018-09-14T08:08:04.028Z,17.05
2018-09-14T08:09:09.800Z,21.85
2018-09-14T08:10:13.229Z,19.23
2018-09-14T08:11:16.689Z,17.27
2018-09-14T08:12:20.276Z,19.90
2018-09-14T08:13:23.781Z,22.62
2018-09-14T08:14:27.171Z,24.20
2018-09-14T08:15:30.580Z,18.50
2018-09-14T08:16:34.028Z,19.73
2018-09-14T08:17:37.560Z,16.77
2018-09-14T08:18:41.021Z,19.40
2018-09-14T08:19:44.405Z,19.57
2018-09-14T08:20:47.828Z,17.10
2018-09-14T08:21:51.795Z,18.02
2018-09-14T08:22:55.115Z,21.42
2018-09-14T08:23:58.536Z,24.18
2018-09-14T08:25:01.962Z,22.15
2018-09-14T08:26:05.398Z,20.70
2018-09-14T08:27:08.873Z,23.30
2018-09-14T08:28:12.233Z,20.92
2018-09-14T08:29:15.667Z,22.27
2018-09-14T08:30:19.096Z,19.98
2018-09-14T08:31:22.758Z,21.95
2018-09-14T08:32:26.227Z,18.35
2018-09-14T08:33:29.585Z,22.10
2018-09-14T08:34:33.183Z,18.15
2018-09-14T08:35:36.576Z,24.60
2018-09-14T08:36:40.001Z,20.88
2018-09-14T08:37:43.648Z,21.65
2018-09-14T08:38:47.101Z,24.23
2018-09-14T08:39:50.569Z,22.35
2018-09-14T08:40:54.087Z,26.50
2018-09-14T08:41:57.521Z,25.20
2018-09-14T08:43:00.978Z,23.50
2018-09-14T08:44:04.388Z,25.12
2018-09-14T08:45:07.858Z,23.27
2018-09-14T08:46:11.264Z,19.30
2018-09-14T08:47:14.797Z,19.65
2018-09-14T08:48:18.187Z,25.30
2018-09-14T08:49:21.617Z,21.77
2018-09-14T08:50:25.030Z,23.92
2018-09-14T08:51:28.432Z,23.92
2018-09-14T08:52:31.876Z,23.20
2018-09-14T08:53:35.302Z,20.75
2018-09-14T08:54:38.715Z,29.30
2018-09-14T08:55:42.137Z,22.87
2018-09-14T08:56:45.591Z,24.40
2018-09-14T08:57:49.014Z,25.35
2018-09-14T08:58:52.453Z,25.20
2018-09-14T08:59:55.862Z,25.85
2018-09-14T09:00:59.282Z,32.42
2018-09-14T09:02:02.823Z,24.55
2018-09-14T09:03:06.234Z,23.83
2018-09-14T09:04:09.817Z,26.55
2018-09-14T09:05:13.220Z,33.38
2018-09-14T09:06:16.704Z,25.17
2018-09-14T09:07:20.206Z,26.48
2018-09-14T09:08:23.591Z,25.23
2018-09-14T09:09:26.987Z,30.48
2018-09-14T09:10:30.380Z,29.18
2018-09-14T09:11:33.829Z,30.40
2018-09-14T09:12:37.224Z,22.07
2018-09-14T09:13:40.667Z,23.83
2018-09-14T09:14:44.060Z,28.67
2018-09-14T09:15:47.492Z,24.82
2018-09-14T09:16:50.908Z,29.85
2018-09-14T09:17:54.478Z,27.32
2018-09-14T09:18:57.792Z,25.85
2018-09-14T09:20:01.267Z,29.92
2018-09-14T09:21:04.885Z,23.12
2018-09-14T09:22:08.361Z,25.27
2018-09-14T09:23:11.744Z,24.35
2018-09-14T09:24:15.208Z,27.48
2018-09-14T09:25:18.633Z,26.33
2018-09-14T09:26:22.126Z,26.62
2018-09-14T09:27:25.548Z,25.90
2018-09-14T09:28:28.953Z,28.60
2018-09-14T09:29:32.419Z,28.73
2018-09-14T09:30:35.753Z,30.95
2018-09-14T09:31:39.168Z,29.45
2018-09-14T09:32:42.796Z,31.68
2018-09-14T09:33:46.204Z,33.48
2018-09-14T09:34:49.651Z,37.98
2018-09-14T09:35:53.116Z,42.33
2018-09-14T09:36:56.821Z,37.75
2018-09-14T09:38:00.281Z,39.27
2018-09-14T09:39:05.399Z,44.90
2018-09-14T09:40:08.794Z,31.95
2018-09-14T09:41:12.270Z,40.23
2018-09-14T09:42:15.659Z,36.75
2018-09-14T09:43:19.140Z,34.40
2018-09-14T09:44:22.533Z,36.38
2018-09-14T09:45:25.989Z,37.85
2018-09-14T09:46:29.375Z,38.78
2018-09-14T09:47:32.789Z,44.88
2018-09-14T09:48:36.264Z,38.48
2018-09-14T09:49:39.708Z,39.13
2018-09-14T09:50:43.183Z,38.78
2018-09-14T09:51:46.576Z,39.50
2018-09-14T09:52:49.972Z,37.53
2018-09-14T09:53:53.451Z,37.50
2018-09-14T09:54:56.917Z,43.40
2018-09-14T09:56:00.308Z,37.80
2018-09-14T09:57:03.752Z,35.55
2018-09-14T09:58:07.700Z,36.73
2018-09-14T09:59:11.149Z,33.15
2018-09-14T10:00:19.989Z,31.82
2018-09-14T10:01:29.740Z,30.72
2018-09-14T10:02:37.044Z,32.33
2018-09-14T10:03:44.160Z,34.05
2018-09-14T10:05:52.412Z,33.40
2018-09-14T10:06:56.451Z,26.68
2018-09-14T10:07:59.918Z,33.98
2018-09-14T10:09:03.629Z,31.42
2018-09-14T10:10:07.096Z,24.20
2018-09-14T10:11:10.601Z,28.17
2018-09-14T10:12:14.117Z,32.45
2018-09-14T10:13:17.516Z,27.00
2018-09-14T10:14:20.973Z,29.82
2018-09-14T10:15:24.386Z,28.57
2018-09-14T10:16:27.787Z,32.25
2018-09-14T10:17:31.231Z,29.15
2018-09-14T10:18:34.626Z,34.10
2018-09-14T10:19:38.419Z,26.80
2018-09-14T10:20:41.895Z,29.70
2018-09-14T10:21:45.345Z,28.75
2018-09-14T10:22:48.708Z,24.07
2018-09-14T10:23:52.155Z,23.47
2018-09-14T10:24:55.557Z,23.38
2018-09-14T10:25:59.144Z,28.62
2018-09-14T10:27:02.614Z,25.82
2018-09-14T10:28:06.294Z,21.05
2018-09-14T10:29:09.688Z,26.75
2018-09-14T10:30:13.179Z,21.48
2018-09-14T10:31:16.654Z,21.40
2018-09-14T10:32:20.133Z,22.65
2018-09-14T10:33:23.537Z,24.50
2018-09-14T10:34:26.940Z,26.10
2018-09-14T10:35:30.339Z,28.10
2018-09-14T10:36:33.765Z,28.35
2018-09-14T10:37:37.343Z,18.75
2018-09-14T10:38:40.800Z,21.45
2018-09-14T10:39:44.216Z,23.35
2018-09-14T10:40:47.708Z,22.93
2018-09-14T10:41:51.096Z,20.48
2018-09-14T10:42:54.627Z,22.45
2018-09-14T10:43:58.022Z,22.30
2018-09-14T10:45:01.418Z,22.02
2018-09-14T10:46:05.140Z,17.82
2018-09-14T10:47:08.692Z,17.17
2018-09-14T10:48:12.093Z,14.60
2018-09-14T10:49:15.481Z,15.28
2018-09-14T10:50:18.961Z,14.87
2018-09-14T10:51:22.348Z,14.10
2018-09-14T10:52:25.773Z,16.42
2018-09-14T10:53:29.179Z,13.00
2018-09-14T10:54:32.804Z,13.05
2018-09-14T10:55:36.233Z,16.55
2018-09-14T10:56:39.649Z,15.72
2018-09-14T10:57:43.060Z,20.48
2018-09-14T10:58:46.793Z,17.37
2018-09-14T10:59:50.256Z,14.15
2018-09-14T11:00:54.700Z,13.72
2018-09-14T11:01:58.033Z,17.23
2018-09-14T11:03:01.485Z,17.80
2018-09-14T11:04:04.901Z,16.35
2018-09-14T11:05:08.463Z,16.12
2018-09-14T11:06:12.713Z,19.12
2018-09-14T11:07:16.101Z,16.30
2018-09-14T11:08:19.507Z,14.30
2018-09-14T11:09:22.979Z,14.68
2018-09-14T11:10:26.564Z,12.50
2018-09-14T11:11:30.049Z,13.13
2018-09-14T11:12:33.621Z,14.65
2018-09-14T11:13:37.046Z,18.23
2018-09-14T11:14:40.458Z,18.98
2018-09-14T11:15:43.907Z,14.60
2018-09-14T11:16:47.359Z,13.68
2018-09-14T11:17:50.792Z,11.83
2018-09-14T11:18:54.211Z,15.80
2018-09-14T11:19:57.722Z,11.55
2018-09-14T11:21:01.108Z,12.75
2018-09-14T11:22:04.507Z,13.62
2018-09-14T11:23:07.928Z,12.90
2018-09-14T11:24:11.467Z,9.95
2018-09-14T11:25:15.087Z,11.33
2018-09-14T11:26:18.428Z,12.25
2018-09-14T11:27:21.819Z,13.68
2018-09-14T11:28:25.278Z,10.72
2018-09-14T11:29:28.680Z,12.58
2018-09-14T11:30:32.079Z,10.98
2018-09-14T11:31:35.663Z,9.58
2018-09-14T11:32:39.104Z,10.15
2018-09-14T11:33:42.644Z,7.92
2018-09-14T11:34:46.052Z,8.73
2018-09-14T11:35:49.480Z,10.50
2018-09-14T11:36:52.872Z,10.72
2018-09-14T11:37:56.474Z,10.55
2018-09-14T11:38:59.890Z,11.22
2018-09-14T11:40:03.329Z,8.63
2018-09-14T11:41:06.849Z,12.18
2018-09-14T11:42:10.316Z,8.28
2018-09-14T11:43:13.723Z,9.23
2018-09-14T11:44:17.233Z,11.57
2018-09-14T11:45:20.677Z,9.13
2018-09-14T11:46:24.253Z,11.48
2018-09-14T11:47:27.935Z,8.75
2018-09-14T11:48:31.370Z,9.78
2018-09-14T11:49:34.764Z,7.58
2018-09-14T11:50:38.308Z,11.65
2018-09-14T11:51:41.900Z,8.15
2018-09-14T11:52:45.301Z,11.57
2018-09-14T11:53:48.828Z,8.53
2018-09-14T11:54:52.372Z,14.83
2018-09-14T11:55:55.777Z,10.50
2018-09-14T11:56:59.248Z,10.68
2018-09-14T11:58:02.894Z,9.80
2018-09-14T11:59:06.287Z,9.70
2018-09-14T12:00:09.817Z,8.98
2018-09-14T12:01:13.252Z,9.80
2018-09-14T12:02:16.781Z,8.65
2018-09-14T12:03:20.203Z,9.65
2018-09-14T12:04:23.655Z,8.28
2018-09-14T12:05:27.010Z,8.90
2018-09-14T12:06:30.815Z,7.40
2018-09-14T12:07:37.074Z,5.75
2018-09-14T12:08:40.572Z,8.35
2018-09-14T12:09:44.000Z,8.45
2018-09-14T12:10:47.451Z,13.62
2018-09-14T12:11:50.894Z,8.53
2018-09-14T12:12:54.372Z,8.88
2018-09-14T12:13:57.807Z,10.85
2018-09-14T12:15:01.223Z,7.87
2018-09-14T12:16:04.652Z,10.90
2018-09-14T12:17:08.109Z,10.03
2018-09-14T12:18:11.532Z,9.15
2018-09-14T12:19:14.932Z,10.38
2018-09-14T12:20:18.349Z,9.03
2018-09-14T12:21:21.948Z,9.38
2018-09-14T12:22:25.418Z,6.50
2018-09-14T12:23:28.759Z,11.97
2018-09-14T12:24:32.292Z,12.37
2018-09-14T12:25:37.407Z,9.23
2018-09-14T12:26:40.857Z,10.10
2018-09-14T12:27:44.256Z,9.43
2018-09-14T12:28:47.687Z,7.87
2018-09-14T12:29:51.096Z,10.32
2018-09-14T12:30:54.537Z,8.63
2018-09-14T12:31:57.952Z,10.58
2018-09-14T12:33:01.391Z,9.48
2018-09-14T12:34:04.843Z,8.48
2018-09-14T12:35:08.353Z,19.10
2018-09-14T12:36:11.838Z,26.30
2018-09-14T12:37:15.221Z,14.98
2018-09-14T12:38:18.697Z,12.05
2018-09-14T12:39:22.089Z,12.37
2018-09-14T12:40:25.643Z,14.55
2018-09-14T12:41:29.103Z,13.62
2018-09-14T12:42:32.488Z,17.67
2018-09-14T12:43:35.898Z,23.57
2018-09-14T12:44:39.388Z,16.32
2018-09-14T12:45:42.784Z,11.22
2018-09-14T12:46:46.305Z,8.20
2018-09-14T12:47:49.788Z,8.20
2018-09-14T12:48:53.249Z,6.97
2018-09-14T12:49:56.644Z,7.55
2018-09-14T12:51:00.107Z,9.85
2018-09-14T12:52:03.504Z,14.25
2018-09-14T12:53:06.888Z,13.45
2018-09-14T12:54:10.340Z,9.90
2018-09-14T12:55:13.780Z,11.12
2018-09-14T12:56:17.215Z,13.40
2018-09-14T12:57:20.621Z,15.13
2018-09-14T12:58:24.039Z,9.00
2018-09-14T12:59:27.441Z,8.35
2018-09-14T13:00:30.851Z,12.10
2018-09-14T13:01:34.245Z,10.50
2018-09-14T13:02:37.728Z,9.93
2018-09-14T13:03:41.174Z,15.90
2018-09-14T13:04:44.691Z,12.45
2018-09-14T13:05:48.208Z,10.70
2018-09-14T13:06:51.806Z,5.87
2018-09-14T13:07:55.200Z,9.18
2018-09-14T13:08:58.664Z,8.83
2018-09-14T13:10:02.104Z,9.80
2018-09-14T13:11:05.556Z,7.10
2018-09-14T13:12:08.943Z,6.15
2018-09-14T13:13:12.344Z,9.10
2018-09-14T13:14:19.555Z,8.18
2018-09-14T13:15:23.120Z,9.70
2018-09-14T13:16:26.548Z,7.30
2018-09-14T13:17:30.048Z,10.80
2018-09-14T13:18:33.532Z,7.42
2018-09-14T13:19:36.993Z,5.90
2018-09-14T13:20:40.424Z,9.70
2018-09-14T13:21:43.894Z,6.05
2018-09-14T13:22:47.272Z,8.63
2018-09-14T13:23:50.879Z,5.83
2018-09-14T13:24:54.328Z,9.00
2018-09-14T13:25:57.790Z,7.97
2018-09-14T13:27:01.187Z,8.55
2018-09-14T13:28:04.656Z,6.12
2018-09-14T13:29:08.027Z,6.35
2018-09-14T13:30:11.418Z,10.25
2018-09-14T13:31:14.872Z,8.25
2018-09-14T13:32:18.277Z,11.22
2018-09-14T13:33:21.664Z,10.70
2018-09-14T13:34:25.093Z,7.33
2018-09-14T13:35:28.635Z,7.58
2018-09-14T13:36:32.483Z,6.62
2018-09-14T13:37:35.924Z,8.18
2018-09-14T13:38:39.346Z,6.80
2018-09-14T13:39:42.744Z,12.45
2018-09-14T13:40:46.207Z,6.47
2018-09-14T13:41:49.747Z,9.90